Time;durP1;ratioP1;P1;durP2;ratioP2;P2;SDS_P1;SDS_P2;PMS_P1;PMS_P2;Temp;Humidity;BMP_temperature;BMP_pressure;BME280_temperature;BME280_humidity;BME280_pressure;Samples;Min_cycle;Max_cycle;Signal;HPM_P1;HPM_P2
2022/03/25 00:01:29;;;;;;;12.07;8.77;;;;;;;;;;5074861;28;20464;-75
2022/03/25 00:03:57;;;;;;;19.65;11.32;;;;;;;;;;5075310;28;20098;-75
2022/03/25 00:06:23;;;;;;;17.65;10.95;;;;;;;;;;5059149;28;20031;-75
2022/03/25 00:08:49;;;;;;;15.63;11.32;;;;;;;;;;5075455;28;20104;-75
2022/03/25 00:11:15;;;;;;;13.30;10.38;;;;;;;;;;5075624;28;20020;-75
2022/03/25 00:13:41;;;;;;;14.70;11.05;;;;;;;;;;5075450;28;20036;-75
2022/03/25 00:16:07;;;;;;;16.67;11.55;;;;;;;;;;5075251;28;20073;-75
2022/03/25 00:18:34;;;;;;;15.50;11.27;;;;;;;;;;5075512;28;20059;-76
2022/03/25 00:21:00;;;;;;;14.73;10.95;;;;;;;;;;5075288;28;20027;-76
2022/03/25 00:23:26;;;;;;;13.90;10.55;;;;;;;;;;5074917;28;20024;-75
2022/03/25 00:25:52;;;;;;;14.82;11.18;;;;;;;;;;5075442;28;20024;-74
2022/03/25 00:28:20;;;;;;;14.55;11.57;;;;;;;;;;5056861;28;20063;-75
2022/03/25 00:30:46;;;;;;;14.45;11.00;;;;;;;;;;5075266;28;20032;-74
2022/03/25 00:33:12;;;;;;;14.50;10.82;;;;;;;;;;5074615;28;20462;-76
2022/03/25 00:35:40;;;;;;;15.32;10.13;;;;;;;;;;5075179;28;20025;-75
2022/03/25 00:38:06;;;;;;;16.63;11.23;;;;;;;;;;5062223;28;20016;-74
2022/03/25 00:40:32;;;;;;;13.63;10.80;;;;;;;;;;5075110;28;20025;-75
2022/03/25 00:42:58;;;;;;;16.38;11.90;;;;;;;;;;5070461;28;20060;-74
2022/03/25 00:45:24;;;;;;;12.60;10.63;;;;;;;;;;5074722;28;20025;-74
2022/03/25 00:47:50;;;;;;;17.48;10.88;;;;;;;;;;5056784;28;20047;-74
2022/03/25 00:50:16;;;;;;;14.43;10.13;;;;;;;;;;5056854;28;20028;-74
2022/03/25 00:52:43;;;;;;;10.23;9.10;;;;;;;;;;5063958;28;20060;-74
2022/03/25 00:55:09;;;;;;;17.00;11.80;;;;;;;;;;5074225;28;20040;-74
2022/03/25 00:57:35;;;;;;;17.30;11.55;;;;;;;;;;5056002;28;20039;-74
2022/03/25 01:00:01;;;;;;;15.52;11.70;;;;;;;;;;5074191;28;20364;-71
2022/03/25 01:02:27;;;;;;;16.50;11.30;;;;;;;;;;5073524;28;20024;-72
2022/03/25 01:04:53;;;;;;;13.48;10.57;;;;;;;;;;5055819;28;20056;-72
2022/03/25 01:07:19;;;;;;;13.35;11.05;;;;;;;;;;5068439;28;20031;-74
2022/03/25 01:09:45;;;;;;;13.77;11.43;;;;;;;;;;5056337;28;20111;-74
2022/03/25 01:12:11;;;;;;;14.88;10.75;;;;;;;;;;5065320;28;20538;-74
2022/03/25 01:14:37;;;;;;;13.05;11.15;;;;;;;;;;5074264;28;20021;-75
2022/03/25 01:17:03;;;;;;;14.65;11.73;;;;;;;;;;5055866;28;20525;-74
2022/03/25 01:19:29;;;;;;;13.27;10.75;;;;;;;;;;5073924;28;20024;-75
2022/03/25 01:21:56;;;;;;;15.35;11.48;;;;;;;;;;5058390;28;20037;-74
2022/03/25 01:24:22;;;;;;;38.67;13.40;;;;;;;;;;5072909;28;20096;-71
2022/03/25 01:26:49;;;;;;;20.92;11.77;;;;;;;;;;5072641;28;20029;-72
2022/03/25 01:29:15;;;;;;;16.33;11.20;;;;;;;;;;5072847;28;20029;-71
2022/03/25 01:31:41;;;;;;;17.13;10.48;;;;;;;;;;5072659;28;20035;-71
2022/03/25 01:34:07;;;;;;;15.85;10.43;;;;;;;;;;5071230;28;20025;-71
2022/03/25 01:36:33;;;;;;;19.95;10.65;;;;;;;;;;5053421;28;20035;-72
2022/03/25 01:38:59;;;;;;;16.48;10.07;;;;;;;;;;5054587;28;20017;-72
2022/03/25 01:41:25;;;;;;;19.00;10.43;;;;;;;;;;5069636;28;20500;-72
2022/03/25 01:43:52;;;;;;;20.77;10.73;;;;;;;;;;5072161;28;20016;-71
2022/03/25 01:46:18;;;;;;;16.00;10.02;;;;;;;;;;5053284;28;20028;-71
2022/03/25 01:48:44;;;;;;;14.50;9.57;;;;;;;;;;5069500;28;20043;-71
2022/03/25 01:51:10;;;;;;;23.73;12.35;;;;;;;;;;5070829;28;20020;-71
2022/03/25 01:53:37;;;;;;;19.45;11.50;;;;;;;;;;5071875;28;20615;-71
2022/03/25 01:56:05;;;;;;;15.00;10.27;;;;;;;;;;5070591;28;20025;-71
2022/03/25 01:58:32;;;;;;;15.25;10.85;;;;;;;;;;5071893;28;20056;-71
2022/03/25 02:00:59;;;;;;;21.45;11.75;;;;;;;;;;5071613;28;20078;-72
2022/03/25 02:03:26;;;;;;;17.25;11.40;;;;;;;;;;5071301;28;20544;-71
2022/03/25 02:05:52;;;;;;;15.52;11.30;;;;;;;;;;5072456;28;20483;-73
2022/03/25 02:08:18;;;;;;;16.80;11.30;;;;;;;;;;5054336;28;20051;-73
2022/03/25 02:10:45;;;;;;;17.80;11.75;;;;;;;;;;5072830;28;20067;-72
2022/03/25 02:13:11;;;;;;;19.45;11.80;;;;;;;;;;5071217;28;20032;-72
2022/03/25 02:15:38;;;;;;;19.15;11.75;;;;;;;;;;5053935;28;20040;-72
2022/03/25 02:18:05;;;;;;;18.65;11.30;;;;;;;;;;5071192;28;20033;-72
2022/03/25 02:20:31;;;;;;;19.58;12.48;;;;;;;;;;5071937;28;20062;-71
2022/03/25 02:22:58;;;;;;;18.08;12.13;;;;;;;;;;5071445;28;20074;-72
2022/03/25 02:25:26;;;;;;;17.00;11.60;;;;;;;;;;5072332;28;20024;-72
2022/03/25 02:27:52;;;;;;;18.13;11.75;;;;;;;;;;5067579;28;20078;-71
2022/03/25 02:30:20;;;;;;;18.35;12.05;;;;;;;;;;5071974;28;20024;-73
2022/03/25 02:32:46;;;;;;;17.13;11.93;;;;;;;;;;5070854;28;20028;-72
2022/03/25 02:35:12;;;;;;;19.65;12.13;;;;;;;;;;5071331;28;20025;-72
2022/03/25 02:37:39;;;;;;;19.20;12.18;;;;;;;;;;5067206;28;20094;-72
2022/03/25 02:40:05;;;;;;;17.33;11.68;;;;;;;;;;5072348;28;20078;-72
2022/03/25 02:42:33;;;;;;;22.30;12.85;;;;;;;;;;5068821;28;20032;-72
2022/03/25 02:44:59;;;;;;;18.50;12.73;;;;;;;;;;5072469;28;20080;-72
2022/03/25 02:47:25;;;;;;;21.55;12.27;;;;;;;;;;5071499;28;20032;-72
2022/03/25 02:49:51;;;;;;;16.98;12.55;;;;;;;;;;5071920;28;20464;-72
2022/03/25 02:52:17;;;;;;;18.92;12.20;;;;;;;;;;5070396;28;20029;-72
2022/03/25 02:54:43;;;;;;;19.27;12.88;;;;;;;;;;5071852;28;20028;-72
2022/03/25 02:57:10;;;;;;;19.33;13.38;;;;;;;;;;5072027;28;20464;-72
2022/03/25 02:59:36;;;;;;;26.17;12.02;;;;;;;;;;5072688;28;20493;-71
2022/03/25 03:02:02;;;;;;;17.20;12.93;;;;;;;;;;5074710;28;20484;-71
2022/03/25 03:04:28;;;;;;;20.08;12.68;;;;;;;;;;5075420;28;20052;-71
2022/03/25 03:06:54;;;;;;;19.45;12.90;;;;;;;;;;5071042;28;20067;-71
2022/03/25 03:09:20;;;;;;;16.50;13.30;;;;;;;;;;5057791;28;20127;-71
2022/03/25 03:11:46;;;;;;;19.50;13.02;;;;;;;;;;5064097;28;20086;-71
2022/03/25 03:14:13;;;;;;;18.40;12.77;;;;;;;;;;5075765;28;20414;-71
2022/03/25 03:16:39;;;;;;;16.70;13.70;;;;;;;;;;5063166;28;20656;-71
2022/03/25 03:19:05;;;;;;;18.85;13.88;;;;;;;;;;5075177;28;20030;-71
2022/03/25 03:21:32;;;;;;;18.20;13.25;;;;;;;;;;5074243;28;20024;-70
2022/03/25 03:23:58;;;;;;;18.67;14.00;;;;;;;;;;5075194;28;20027;-72
2022/03/25 03:26:24;;;;;;;18.90;13.13;;;;;;;;;;5074431;28;20028;-71
2022/03/25 03:28:50;;;;;;;19.23;14.43;;;;;;;;;;5057051;28;20069;-71
2022/03/25 03:31:16;;;;;;;25.70;14.52;;;;;;;;;;5073426;28;20029;-71
2022/03/25 03:33:42;;;;;;;19.50;14.77;;;;;;;;;;5074834;28;20027;-71
2022/03/25 03:36:08;;;;;;;20.77;15.30;;;;;;;;;;5055998;28;20020;-72
2022/03/25 03:38:34;;;;;;;21.63;14.88;;;;;;;;;;5074444;28;20044;-72
2022/03/25 03:41:00;;;;;;;18.67;14.25;;;;;;;;;;5056173;28;20059;-71
2022/03/25 03:43:26;;;;;;;17.70;14.43;;;;;;;;;;5074597;28;20024;-71
2022/03/25 03:45:52;;;;;;;19.50;14.68;;;;;;;;;;5074871;28;20035;-70
2022/03/25 03:48:18;;;;;;;20.20;15.02;;;;;;;;;;5070065;28;20044;-71
2022/03/25 03:50:44;;;;;;;18.55;14.70;;;;;;;;;;5074743;28;20499;-71
2022/03/25 03:53:10;;;;;;;20.25;15.70;;;;;;;;;;5069775;28;20032;-70
2022/03/25 03:55:36;;;;;;;22.58;15.73;;;;;;;;;;5074833;28;20037;-72
2022/03/25 03:58:02;;;;;;;19.20;15.15;;;;;;;;;;5070055;28;20054;-72
2022/03/25 04:00:28;;;;;;;25.17;15.90;;;;;;;;;;5074560;28;20028;-71
2022/03/25 04:02:55;;;;;;;23.00;15.40;;;;;;;;;;5055837;28;20024;-72
2022/03/25 04:05:22;;;;;;;24.58;15.50;;;;;;;;;;5056547;28;20044;-70
2022/03/25 04:07:48;;;;;;;23.60;15.38;;;;;;;;;;5073565;28;20056;-71
2022/03/25 04:10:16;;;;;;;23.88;16.08;;;;;;;;;;5056579;28;20032;-71
2022/03/25 04:12:42;;;;;;;22.08;16.67;;;;;;;;;;5068560;28;20025;-71
2022/03/25 04:15:09;;;;;;;21.25;16.13;;;;;;;;;;5074506;28;20104;-73
2022/03/25 04:17:36;;;;;;;23.77;16.60;;;;;;;;;;5056244;28;20021;-71
2022/03/25 04:20:02;;;;;;;20.38;16.58;;;;;;;;;;5074390;28;20020;-71
2022/03/25 04:22:28;;;;;;;22.92;16.98;;;;;;;;;;5070031;28;20024;-71
2022/03/25 04:24:55;;;;;;;23.20;15.98;;;;;;;;;;5073450;28;20024;-72
2022/03/25 04:27:21;;;;;;;38.38;16.17;;;;;;;;;;5069953;28;20086;-70
2022/03/25 04:29:47;;;;;;;31.17;16.38;;;;;;;;;;5074174;28;20090;-70
2022/03/25 04:32:13;;;;;;;25.17;17.55;;;;;;;;;;5072986;28;20487;-70
2022/03/25 04:34:39;;;;;;;32.10;17.30;;;;;;;;;;5055732;28;20024;-70
2022/03/25 04:37:05;;;;;;;29.33;18.05;;;;;;;;;;5069001;28;20032;-69
2022/03/25 04:39:31;;;;;;;30.75;17.30;;;;;;;;;;5055639;28;20048;-69
2022/03/25 04:41:57;;;;;;;24.23;18.60;;;;;;;;;;5072997;28;20024;-70
2022/03/25 04:44:23;;;;;;;25.90;18.15;;;;;;;;;;5073585;28;20021;-71
2022/03/25 04:46:49;;;;;;;30.27;18.52;;;;;;;;;;5056050;28;20039;-70
2022/03/25 04:49:15;;;;;;;27.48;18.90;;;;;;;;;;5073802;28;20551;-71
2022/03/25 04:51:41;;;;;;;30.40;17.83;;;;;;;;;;5055736;28;20051;-70
2022/03/25 04:54:07;;;;;;;29.27;18.50;;;;;;;;;;5055950;28;20060;-70
2022/03/25 04:56:35;;;;;;;24.35;18.67;;;;;;;;;;5053103;28;20499;-71
2022/03/25 04:59:01;;;;;;;25.35;19.20;;;;;;;;;;5066427;28;20472;-71
2022/03/25 05:01:26;;;;;;;26.80;18.67;;;;;;;;;;5069622;28;20086;-71
2022/03/25 05:03:52;;;;;;;27.17;19.67;;;;;;;;;;5073457;28;20044;-72
2022/03/25 05:06:18;;;;;;;30.85;19.63;;;;;;;;;;5071056;28;20556;-71
2022/03/25 05:08:44;;;;;;;28.48;19.65;;;;;;;;;;5054212;28;20399;-72
2022/03/25 05:11:10;;;;;;;25.60;18.73;;;;;;;;;;5073112;28;20029;-72
2022/03/25 05:13:36;;;;;;;27.85;20.23;;;;;;;;;;5073624;28;20081;-71
2022/03/25 05:16:02;;;;;;;24.77;18.50;;;;;;;;;;5072862;28;20476;-72
2022/03/25 05:18:28;;;;;;;26.48;20.48;;;;;;;;;;5070622;28;20028;-71
2022/03/25 05:20:54;;;;;;;26.65;17.90;;;;;;;;;;5055441;28;20035;-71
2022/03/25 05:23:21;;;;;;;36.97;19.52;;;;;;;;;;5072374;28;20021;-72
2022/03/25 05:25:47;;;;;;;25.27;19.00;;;;;;;;;;5073357;28;20085;-71
2022/03/25 05:28:13;;;;;;;26.40;20.00;;;;;;;;;;5072893;28;20387;-71
2022/03/25 05:30:39;;;;;;;25.50;19.63;;;;;;;;;;5072516;28;20337;-71
2022/03/25 05:33:05;;;;;;;26.05;20.13;;;;;;;;;;5067379;28;20103;-72
2022/03/25 05:35:32;;;;;;;25.17;20.35;;;;;;;;;;5054371;28;20024;-72
2022/03/25 05:37:58;;;;;;;26.50;20.08;;;;;;;;;;5070680;28;20615;-71
2022/03/25 05:40:25;;;;;;;27.50;19.77;;;;;;;;;;5067947;28;20030;-71
2022/03/25 05:42:51;;;;;;;25.45;20.60;;;;;;;;;;5067006;28;20074;-70
2022/03/25 05:45:19;;;;;;;28.75;21.40;;;;;;;;;;5072231;28;20041;-71
2022/03/25 05:47:45;;;;;;;30.98;20.40;;;;;;;;;;5071384;28;20044;-72
2022/03/25 05:50:12;;;;;;;37.70;21.00;;;;;;;;;;5074311;28;20032;-71
2022/03/25 05:52:38;;;;;;;47.22;22.15;;;;;;;;;;5067627;28;20070;-69
2022/03/25 05:55:04;;;;;;;31.67;20.63;;;;;;;;;;5053578;28;20101;-70
2022/03/25 05:57:31;;;;;;;27.55;21.05;;;;;;;;;;5071010;28;20467;-69
2022/03/25 05:59:58;;;;;;;27.92;21.40;;;;;;;;;;5071663;28;20032;-69
2022/03/25 06:02:25;;;;;;;26.60;20.00;;;;;;;;;;5070312;28;20135;-70
2022/03/25 06:04:51;;;;;;;34.03;21.45;;;;;;;;;;5070884;28;20381;-70
2022/03/25 06:07:17;;;;;;;30.35;21.33;;;;;;;;;;5066948;28;20054;-70
2022/03/25 06:09:44;;;;;;;28.48;20.95;;;;;;;;;;5073655;28;20411;-70
2022/03/25 06:12:11;;;;;;;31.95;21.60;;;;;;;;;;5073724;28;20024;-70
2022/03/25 06:14:38;;;;;;;33.55;21.17;;;;;;;;;;5071626;28;20028;-70
2022/03/25 06:17:04;;;;;;;28.15;20.75;;;;;;;;;;5070422;28;20499;-71
2022/03/25 06:19:30;;;;;;;28.23;21.27;;;;;;;;;;5071334;28;20032;-71
2022/03/25 06:21:56;;;;;;;36.60;21.70;;;;;;;;;;5070178;28;20414;-70
2022/03/25 06:24:22;;;;;;;27.90;21.02;;;;;;;;;;5070929;28;20024;-71
2022/03/25 06:26:48;;;;;;;29.60;21.33;;;;;;;;;;5071210;28;20079;-71
2022/03/25 06:29:14;;;;;;;30.75;21.98;;;;;;;;;;5071440;28;20059;-71
2022/03/25 06:31:40;;;;;;;28.55;19.50;;;;;;;;;;5070410;28;20423;-71
2022/03/25 06:34:07;;;;;;;36.45;21.58;;;;;;;;;;5073360;28;20085;-73
2022/03/25 06:36:33;;;;;;;29.65;19.98;;;;;;;;;;5054143;28;20055;-73
2022/03/25 06:39:03;;;;;;;31.60;20.85;;;;;;;;;;5072038;28;20048;-75
2022/03/25 06:41:29;;;;;;;35.78;20.98;;;;;;;;;;5050453;28;20519;-74
2022/03/25 06:43:56;;;;;;;32.50;19.77;;;;;;;;;;5073989;28;20075;-75
2022/03/25 06:46:22;;;;;;;29.55;20.25;;;;;;;;;;5049656;28;20036;-75
2022/03/25 06:48:49;;;;;;;37.00;21.45;;;;;;;;;;5074880;28;20041;-72
2022/03/25 06:51:15;;;;;;;30.90;19.45;;;;;;;;;;5053214;28;20399;-68
2022/03/25 06:53:41;;;;;;;35.03;20.38;;;;;;;;;;5065166;28;20468;-67
2022/03/25 06:56:07;;;;;;;34.97;19.75;;;;;;;;;;5069054;28;20033;-73
2022/03/25 06:58:36;;;;;;;27.00;19.05;;;;;;;;;;5070616;28;20048;-65
2022/03/25 07:01:02;;;;;;;31.63;18.60;;;;;;;;;;5070528;28;20020;-73
2022/03/25 07:03:28;;;;;;;33.05;19.42;;;;;;;;;;5068268;28;20056;-68
2022/03/25 07:05:54;;;;;;;44.13;19.08;;;;;;;;;;5053410;28;20045;-65
2022/03/25 07:08:22;;;;;;;50.75;22.60;;;;;;;;;;5070635;28;20118;-67
2022/03/25 07:10:48;;;;;;;50.00;26.10;;;;;;;;;;5071116;28;20113;-64
2022/03/25 07:13:14;;;;;;;51.67;27.67;;;;;;;;;;5073458;28;20047;-68
2022/03/25 07:15:40;;;;;;;53.83;26.67;;;;;;;;;;5073040;28;20111;-75
2022/03/25 07:18:06;;;;;;;47.85;27.85;;;;;;;;;;5066870;28;20075;-71
2022/03/25 07:20:32;;;;;;;51.05;28.52;;;;;;;;;;5073038;28;20499;-74
2022/03/25 07:22:59;;;;;;;60.03;28.45;;;;;;;;;;5070077;28;20500;-73
2022/03/25 07:25:25;;;;;;;57.75;29.73;;;;;;;;;;5071092;28;20032;-72
2022/03/25 07:27:52;;;;;;;52.70;30.58;;;;;;;;;;5070737;28;20076;-71
2022/03/25 07:30:18;;;;;;;50.70;30.55;;;;;;;;;;5071020;28;20550;-77
2022/03/25 07:32:44;;;;;;;49.45;28.90;;;;;;;;;;5066821;28;20024;-72
2022/03/25 07:35:11;;;;;;;54.65;30.00;;;;;;;;;;5070849;28;20025;-72
2022/03/25 07:37:41;;;;;;;55.88;30.70;;;;;;;;;;5070475;28;20036;-75
2022/03/25 07:40:11;;;;;;;49.25;29.60;;;;;;;;;;5071814;28;20066;-76
2022/03/25 07:42:40;;;;;;;48.20;30.42;;;;;;;;;;5058764;28;20029;-75
2022/03/25 07:45:08;;;;;;;51.20;29.80;;;;;;;;;;5053886;28;20028;-72
2022/03/25 07:47:35;;;;;;;50.83;31.38;;;;;;;;;;5054335;28;20039;-72
2022/03/25 07:50:01;;;;;;;49.13;30.17;;;;;;;;;;5075187;28;20396;-77
2022/03/25 07:52:27;;;;;;;44.33;29.83;;;;;;;;;;5074549;28;20029;-74
2022/03/25 07:54:53;;;;;;;47.63;30.50;;;;;;;;;;5075326;28;20082;-73
2022/03/25 07:57:21;;;;;;;54.50;30.42;;;;;;;;;;5070257;28;20382;-83
2022/03/25 07:59:46;;;;;;;40.13;29.27;;;;;;;;;;5075367;28;20107;-74
2022/03/25 08:02:12;;;;;;;42.90;30.55;;;;;;;;;;5074198;28;20106;-77
2022/03/25 08:04:38;;;;;;;42.80;29.75;;;;;;;;;;5074951;28;20037;-75
2022/03/25 08:07:04;;;;;;;46.72;29.50;;;;;;;;;;5065906;28;20088;-77
2022/03/25 08:09:30;;;;;;;43.03;28.77;;;;;;;;;;5064728;28;20082;-76
2022/03/25 08:11:56;;;;;;;43.33;29.08;;;;;;;;;;5074758;28;20025;-79
2022/03/25 08:14:22;;;;;;;41.28;29.75;;;;;;;;;;5058237;28;20028;-77
2022/03/25 08:16:48;;;;;;;41.30;28.63;;;;;;;;;;5075164;28;20090;-73
2022/03/25 08:19:15;;;;;;;40.90;28.23;;;;;;;;;;5076477;28;20048;-73
2022/03/25 08:21:41;;;;;;;40.47;29.15;;;;;;;;;;5074676;28;20372;-76
2022/03/25 08:29:36;;;;;;;41.17;27.65;;;;;;;;;;5075210;28;20494;-81
2022/03/25 08:32:03;;;;;;;49.25;27.77;;;;;;;;;;5074811;28;20529;-80
2022/03/25 08:34:29;;;;;;;39.92;27.20;;;;;;;;;;5074597;28;20105;-80
2022/03/25 08:36:55;;;;;;;39.65;27.67;;;;;;;;;;5054588;28;20025;-72
2022/03/25 08:39:24;;;;;;;41.72;27.20;;;;;;;;;;5056951;28;20384;-82
2022/03/25 08:41:51;;;;;;;39.05;27.10;;;;;;;;;;5073408;28;20107;-80
2022/03/25 08:44:17;;;;;;;40.97;26.30;;;;;;;;;;5070823;28;20036;-73
2022/03/25 08:46:43;;;;;;;34.50;26.15;;;;;;;;;;5073633;28;20025;-75
2022/03/25 08:49:10;;;;;;;36.38;25.38;;;;;;;;;;5074277;28;20036;-76
2022/03/25 08:51:36;;;;;;;38.13;26.17;;;;;;;;;;5073276;28;20025;-71
2022/03/25 08:54:02;;;;;;;40.03;27.25;;;;;;;;;;5073924;28;20081;-75
2022/03/25 08:56:28;;;;;;;34.05;25.13;;;;;;;;;;5050669;28;20037;-75
2022/03/25 08:58:55;;;;;;;37.92;26.40;;;;;;;;;;5071402;28;20025;-70
2022/03/25 09:01:22;;;;;;;40.05;26.48;;;;;;;;;;5072936;28;20506;-73
2022/03/25 09:03:48;;;;;;;37.47;27.10;;;;;;;;;;5073125;28;20059;-77
2022/03/25 09:06:14;;;;;;;40.70;27.90;;;;;;;;;;5053059;28;20148;-72
2022/03/25 09:08:40;;;;;;;38.92;27.63;;;;;;;;;;5052648;28;20532;-72
2022/03/25 09:11:06;;;;;;;42.67;27.83;;;;;;;;;;5053250;28;20048;-72
2022/03/25 09:13:32;;;;;;;41.35;27.77;;;;;;;;;;5075991;28;20025;-71
2022/03/25 09:15:58;;;;;;;46.30;28.92;;;;;;;;;;5072213;28;20074;-71
2022/03/25 09:18:24;;;;;;;42.65;28.70;;;;;;;;;;5072724;28;20033;-72
2022/03/25 09:20:50;;;;;;;46.13;29.90;;;;;;;;;;5072352;28;20025;-72
2022/03/25 09:23:17;;;;;;;41.53;29.40;;;;;;;;;;5072348;28;20430;-72
2022/03/25 09:25:43;;;;;;;46.95;30.08;;;;;;;;;;5072478;28;20024;-72
2022/03/25 09:28:09;;;;;;;47.58;28.83;;;;;;;;;;5054009;28;20059;-73
2022/03/25 09:30:35;;;;;;;42.88;30.08;;;;;;;;;;5072698;28;20078;-76
2022/03/25 09:33:02;;;;;;;43.78;31.02;;;;;;;;;;5071992;28;20128;-72
2022/03/25 09:35:28;;;;;;;43.58;30.85;;;;;;;;;;5072544;28;20525;-71
2022/03/25 09:37:54;;;;;;;46.97;31.17;;;;;;;;;;5072302;28;20036;-69
2022/03/25 09:40:23;;;;;;;49.45;30.98;;;;;;;;;;5072177;28;20079;-70
2022/03/25 09:42:51;;;;;;;46.63;31.30;;;;;;;;;;5072764;28;20028;-73
2022/03/25 09:45:17;;;;;;;43.13;30.60;;;;;;;;;;5072761;28;20020;-73
2022/03/25 09:47:43;;;;;;;50.63;31.15;;;;;;;;;;5054861;28;20032;-71
2022/03/25 09:50:12;;;;;;;46.10;32.15;;;;;;;;;;5072846;28;20020;-72
2022/03/25 09:52:39;;;;;;;44.85;31.55;;;;;;;;;;5053911;28;20044;-74
2022/03/25 09:55:05;;;;;;;43.65;30.95;;;;;;;;;;5072482;28;20487;-72
2022/03/25 09:57:32;;;;;;;44.30;30.00;;;;;;;;;;5054358;28;20024;-74
2022/03/25 09:59:58;;;;;;;45.03;29.50;;;;;;;;;;5071379;28;20017;-75
2022/03/25 10:02:24;;;;;;;45.63;28.65;;;;;;;;;;5071178;28;20051;-71
2022/03/25 10:04:56;;;;;;;42.55;28.73;;;;;;;;;;5071811;28;20379;-70
2022/03/25 10:07:23;;;;;;;42.13;28.92;;;;;;;;;;5071184;28;20021;-70
2022/03/25 10:10:05;;;;;;;45.78;28.90;;;;;;;;;;5070816;28;20073;-71
2022/03/25 10:12:31;;;;;;;44.13;28.08;;;;;;;;;;5071576;28;20028;-72
2022/03/25 10:15:11;;;;;;;39.92;27.60;;;;;;;;;;5071293;28;20143;-71
2022/03/25 10:17:57;;;;;;;41.35;27.50;;;;;;;;;;5071638;28;20483;-74
2022/03/25 10:20:33;;;;;;;42.20;26.85;;;;;;;;;;5053463;28;20077;-72
2022/03/25 10:23:02;;;;;;;45.85;27.30;;;;;;;;;;5071308;28;20031;-71
2022/03/25 10:25:35;;;;;;;48.13;27.00;;;;;;;;;;5052922;28;20033;-71
2022/03/25 10:28:04;;;;;;;41.13;25.75;;;;;;;;;;5071088;28;20555;-72
2022/03/25 10:30:36;;;;;;;36.05;24.73;;;;;;;;;;5071704;28;20021;-72
2022/03/25 10:33:12;;;;;;;30.20;21.97;;;;;;;;;;5071507;28;20028;-72
2022/03/25 10:35:58;;;;;;;37.05;24.10;;;;;;;;;;5053250;28;20020;-71
2022/03/25 10:38:25;;;;;;;33.95;21.85;;;;;;;;;;5071206;28;20037;-78
2022/03/25 10:40:51;;;;;;;32.78;22.73;;;;;;;;;;5071504;28;20028;-69
2022/03/25 10:43:17;;;;;;;28.65;20.10;;;;;;;;;;5071609;28;20099;-73
2022/03/25 10:45:43;;;;;;;28.90;20.75;;;;;;;;;;5071835;28;20521;-75
2022/03/25 10:48:15;;;;;;;31.45;20.95;;;;;;;;;;5071369;28;20061;-71
2022/03/25 10:50:58;;;;;;;41.08;22.60;;;;;;;;;;5071677;28;20619;-71
2022/03/25 10:53:24;;;;;;;29.65;20.10;;;;;;;;;;5067266;28;20032;-74
2022/03/25 10:55:54;;;;;;;28.58;19.40;;;;;;;;;;5071587;28;20550;-74
2022/03/25 10:58:20;;;;;;;27.08;18.77;;;;;;;;;;5071300;28;20058;-72
2022/03/25 11:00:46;;;;;;;24.73;17.88;;;;;;;;;;5053143;28;20375;-71
2022/03/25 11:03:16;;;;;;;28.80;19.58;;;;;;;;;;5071525;28;20025;-73
2022/03/25 11:05:43;;;;;;;35.05;22.98;;;;;;;;;;5071115;28;20174;-73
2022/03/25 11:08:09;;;;;;;26.77;18.48;;;;;;;;;;5070954;28;20032;-70
2022/03/25 11:10:35;;;;;;;35.70;20.10;;;;;;;;;;5071588;28;20021;-71
2022/03/25 11:13:03;;;;;;;35.97;22.13;;;;;;;;;;5070745;28;20408;-72
2022/03/25 11:15:30;;;;;;;34.65;21.75;;;;;;;;;;5071349;28;20376;-73
2022/03/25 11:17:56;;;;;;;28.02;19.65;;;;;;;;;;5071776;28;20760;-71
2022/03/25 11:20:24;;;;;;;29.60;18.92;;;;;;;;;;5053313;28;20040;-72
2022/03/25 11:22:52;;;;;;;32.88;20.33;;;;;;;;;;5074588;28;20055;-72
2022/03/25 11:25:21;;;;;;;28.88;18.45;;;;;;;;;;5075299;28;20474;-70
2022/03/25 11:27:48;;;;;;;30.98;20.30;;;;;;;;;;5075270;28;20021;-72
2022/03/25 11:30:16;;;;;;;32.10;19.75;;;;;;;;;;5057339;28;20035;-73
2022/03/25 11:33:09;;;;;;;37.53;20.65;;;;;;;;;;5057516;28;20032;-75
2022/03/25 11:35:39;;;;;;;39.80;22.42;;;;;;;;;;5073037;28;20155;-78
2022/03/25 11:38:08;;;;;;;31.40;20.67;;;;;;;;;;5075488;28;20028;-72
2022/03/25 11:40:34;;;;;;;32.60;21.02;;;;;;;;;;5075430;28;20033;-73
2022/03/25 11:43:11;;;;;;;35.75;19.98;;;;;;;;;;5075089;28;20108;-80
2022/03/25 11:45:38;;;;;;;31.30;19.52;;;;;;;;;;5074535;28;20111;-73
2022/03/25 11:48:04;;;;;;;28.88;18.30;;;;;;;;;;5056429;28;20028;-75
2022/03/25 11:50:30;;;;;;;31.35;18.88;;;;;;;;;;5074321;28;20383;-67
2022/03/25 11:52:56;;;;;;;30.42;18.15;;;;;;;;;;5074063;28;20104;-66
2022/03/25 11:55:22;;;;;;;27.05;16.95;;;;;;;;;;5056090;28;20110;-69
2022/03/25 11:57:49;;;;;;;27.80;17.83;;;;;;;;;;5074112;28;20100;-67
2022/03/25 12:00:28;;;;;;;27.33;17.08;;;;;;;;;;5056090;28;20028;-75
2022/03/25 12:03:04;;;;;;;24.33;15.73;;;;;;;;;;5075159;28;20024;-73
2022/03/25 12:05:30;;;;;;;28.17;16.63;;;;;;;;;;5074629;28;20048;-75
2022/03/25 12:08:15;;;;;;;25.77;15.23;;;;;;;;;;5056141;28;20442;-75
2022/03/25 12:10:44;;;;;;;23.20;15.82;;;;;;;;;;5072978;28;20539;-74
2022/03/25 12:13:11;;;;;;;25.23;14.77;;;;;;;;;;5074535;28;20016;-73
2022/03/25 12:15:41;;;;;;;24.90;15.00;;;;;;;;;;5074576;28;20021;-76
2022/03/25 12:18:25;;;;;;;23.90;14.55;;;;;;;;;;5074490;28;20109;-73
2022/03/25 12:20:51;;;;;;;22.05;14.13;;;;;;;;;;5076238;28;20469;-68
2022/03/25 12:23:17;;;;;;;24.23;14.07;;;;;;;;;;5073275;28;20123;-68
2022/03/25 12:25:44;;;;;;;24.65;13.98;;;;;;;;;;5073128;28;20024;-68
2022/03/25 12:28:10;;;;;;;18.27;12.60;;;;;;;;;;5072618;28;20035;-68
2022/03/25 12:30:36;;;;;;;23.05;11.93;;;;;;;;;;5072986;28;20033;-69
2022/03/25 12:33:07;;;;;;;18.77;12.48;;;;;;;;;;5071612;28;20083;-68
2022/03/25 12:35:36;;;;;;;20.75;11.93;;;;;;;;;;5072876;28;20020;-68
2022/03/25 12:38:05;;;;;;;19.77;12.27;;;;;;;;;;5071950;28;20066;-68
2022/03/25 12:40:32;;;;;;;18.42;11.23;;;;;;;;;;5072899;28;20032;-68
2022/03/25 12:43:00;;;;;;;18.73;11.88;;;;;;;;;;5072700;28;20498;-68
2022/03/25 12:45:27;;;;;;;18.65;11.52;;;;;;;;;;5072868;28;20069;-68
2022/03/25 12:47:53;;;;;;;18.50;11.07;;;;;;;;;;5072852;28;20037;-67
2022/03/25 12:50:21;;;;;;;18.55;10.70;;;;;;;;;;5073093;28;20544;-68
2022/03/25 12:52:47;;;;;;;18.85;11.10;;;;;;;;;;5073113;28;20368;-68
2022/03/25 12:55:15;;;;;;;17.63;11.10;;;;;;;;;;5053997;28;20083;-69
2022/03/25 12:57:42;;;;;;;17.48;10.57;;;;;;;;;;5072501;28;20033;-68
2022/03/25 13:00:10;;;;;;;15.25;9.82;;;;;;;;;;5072936;28;20029;-68
2022/03/25 13:02:39;;;;;;;17.92;9.70;;;;;;;;;;5073179;28;20027;-73
2022/03/25 13:05:13;;;;;;;14.32;9.65;;;;;;;;;;5073291;28;20036;-74
2022/03/25 13:07:49;;;;;;;20.55;10.27;;;;;;;;;;5055477;28;20033;-75
2022/03/25 13:10:16;;;;;;;19.50;10.23;;;;;;;;;;5073487;28;20029;-74
2022/03/25 13:12:43;;;;;;;18.98;9.35;;;;;;;;;;5073168;28;20033;-74
2022/03/25 13:15:11;;;;;;;27.63;9.70;;;;;;;;;;5073566;28;20048;-74
2022/03/25 13:17:37;;;;;;;16.30;9.43;;;;;;;;;;5073233;28;20360;-74
2022/03/25 13:20:06;;;;;;;17.92;10.10;;;;;;;;;;5073203;28;20081;-77
2022/03/25 13:22:32;;;;;;;22.02;9.55;;;;;;;;;;5072436;28;20093;-75
2022/03/25 13:24:59;;;;;;;21.63;9.48;;;;;;;;;;5055292;28;20025;-75
2022/03/25 13:27:25;;;;;;;19.65;9.23;;;;;;;;;;5073034;28;20483;-73
2022/03/25 13:29:52;;;;;;;22.00;8.80;;;;;;;;;;5072582;28;20056;-74
2022/03/25 13:32:30;;;;;;;16.52;8.55;;;;;;;;;;5073036;28;20084;-75
2022/03/25 13:35:04;;;;;;;18.20;8.75;;;;;;;;;;5054988;28;20096;-74
2022/03/25 13:37:30;;;;;;;19.15;9.07;;;;;;;;;;5073355;28;20104;-73
2022/03/25 13:39:56;;;;;;;21.00;8.63;;;;;;;;;;5073190;28;20024;-73
2022/03/25 13:42:31;;;;;;;20.92;8.30;;;;;;;;;;5072935;28;20028;-74
2022/03/25 13:45:04;;;;;;;18.52;8.32;;;;;;;;;;5060918;28;20028;-76
2022/03/25 13:47:30;;;;;;;17.20;8.73;;;;;;;;;;5042721;28;20414;-68
2022/03/25 13:50:15;;;;;;;13.68;7.82;;;;;;;;;;5072051;28;20035;-68
2022/03/25 13:52:42;;;;;;;11.48;7.85;;;;;;;;;;5072010;28;20032;-68
2022/03/25 13:55:16;;;;;;;16.05;7.28;;;;;;;;;;5071926;28;20170;-70
2022/03/25 13:57:53;;;;;;;15.60;8.57;;;;;;;;;;5071811;28;20016;-69
2022/03/25 14:00:19;;;;;;;26.20;8.75;;;;;;;;;;5071975;28;20033;-69
2022/03/25 14:02:46;;;;;;;15.85;8.00;;;;;;;;;;5071800;28;20025;-69
2022/03/25 14:05:13;;;;;;;17.13;7.43;;;;;;;;;;5053906;28;20044;-73
2022/03/25 14:07:39;;;;;;;12.68;7.78;;;;;;;;;;5054238;28;20052;-75
2022/03/25 14:10:12;;;;;;;14.55;7.80;;;;;;;;;;5072436;28;20028;-77
2022/03/25 14:12:38;;;;;;;26.67;9.00;;;;;;;;;;5074082;28;20265;-71
2022/03/25 14:15:06;;;;;;;15.98;9.10;;;;;;;;;;5071820;28;20020;-73
2022/03/25 14:17:32;;;;;;;24.00;9.52;;;;;;;;;;5060319;28;20534;-71
2022/03/25 14:20:09;;;;;;;17.45;9.25;;;;;;;;;;5052744;28;20058;-72
2022/03/25 14:22:38;;;;;;;25.27;9.80;;;;;;;;;;5069181;28;20452;-74
2022/03/25 14:25:05;;;;;;;17.20;10.48;;;;;;;;;;5071538;28;20462;-72